sensor_id;sensor_type;location;lat;lon;timestamp;P1;durP1;ratioP1;P2;durP2;ratioP2
18677;SDS011;9469;51.114;13.914;2022-12-18T00:00:36;49.57;;;25.50;;
18677;SDS011;9469;51.114;13.914;2022-12-18T00:05:47;52.87;;;25.03;;
18677;SDS011;9469;51.114;13.914;2022-12-18T00:10:52;51.80;;;24.87;;
18677;SDS011;9469;51.114;13.914;2022-12-18T00:16:05;54.77;;;25.47;;
18677;SDS011;9469;51.114;13.914;2022-12-18T00:21:12;54.97;;;26.23;;
18677;SDS011;9469;51.114;13.914;2022-12-18T00:26:19;56.30;;;27.43;;
18677;SDS011;9469;51.114;13.914;2022-12-18T00:31:33;55.23;;;26.47;;
18677;SDS011;9469;51.114;13.914;2022-12-18T00:36:39;47.60;;;24.27;;
18677;SDS011;9469;51.114;13.914;2022-12-18T00:41:46;46.67;;;24.93;;
18677;SDS011;9469;51.114;13.914;2022-12-18T00:47:06;48.73;;;25.57;;
18677;SDS011;9469;51.114;13.914;2022-12-18T00:52:11;54.23;;;24.90;;
18677;SDS011;9469;51.114;13.914;2022-12-18T00:57:16;48.10;;;26.23;;
18677;SDS011;9469;51.114;13.914;2022-12-18T01:02:23;54.07;;;23.67;;
18677;SDS011;9469;51.114;13.914;2022-12-18T01:07:29;48.40;;;23.70;;
18677;SDS011;9469;51.114;13.914;2022-12-18T01:12:36;48.80;;;24.17;;
18677;SDS011;9469;51.114;13.914;2022-12-18T01:17:44;47.73;;;23.97;;
18677;SDS011;9469;51.114;13.914;2022-12-18T01:22:49;39.17;;;21.67;;
18677;SDS011;9469;51.114;13.914;2022-12-18T01:27:54;39.90;;;21.87;;
18677;SDS011;9469;51.114;13.914;2022-12-18T01:33:02;48.33;;;24.27;;
18677;SDS011;9469;51.114;13.914;2022-12-18T01:38:09;51.47;;;24.80;;
18677;SDS011;9469;51.114;13.914;2022-12-18T01:43:14;50.03;;;24.87;;
18677;SDS011;9469;51.114;13.914;2022-12-18T01:48:22;45.13;;;22.27;;
18677;SDS011;9469;51.114;13.914;2022-12-18T01:53:27;53.93;;;23.83;;
18677;SDS011;9469;51.114;13.914;2022-12-18T01:58:35;45.67;;;21.10;;
18677;SDS011;9469;51.114;13.914;2022-12-18T02:03:47;55.63;;;27.07;;
18677;SDS011;9469;51.114;13.914;2022-12-18T02:08:56;48.97;;;23.53;;
18677;SDS011;9469;51.114;13.914;2022-12-18T02:14:10;52.50;;;22.13;;
18677;SDS011;9469;51.114;13.914;2022-12-18T02:25:00;96.90;;;26.87;;
18677;SDS011;9469;51.114;13.914;2022-12-18T02:30:19;130.20;;;27.63;;
18677;SDS011;9469;51.114;13.914;2022-12-18T02:35:26;112.43;;;24.93;;
18677;SDS011;9469;51.114;13.914;2022-12-18T02:40:35;121.53;;;26.30;;
18677;SDS011;9469;51.114;13.914;2022-12-18T02:45:49;92.87;;;23.97;;
18677;SDS011;9469;51.114;13.914;2022-12-18T02:50:59;98.10;;;27.20;;
18677;SDS011;9469;51.114;13.914;2022-12-18T02:56:09;116.23;;;23.47;;
18677;SDS011;9469;51.114;13.914;2022-12-18T03:01:23;111.23;;;24.93;;
18677;SDS011;9469;51.114;13.914;2022-12-18T03:06:35;148.90;;;27.97;;
18677;SDS011;9469;51.114;13.914;2022-12-18T03:11:47;103.83;;;25.00;;
18677;SDS011;9469;51.114;13.914;2022-12-18T03:17:16;80.97;;;26.03;;
18677;SDS011;9469;51.114;13.914;2022-12-18T03:22:26;59.37;;;23.40;;
18677;SDS011;9469;51.114;13.914;2022-12-18T03:27:33;65.63;;;23.60;;
18677;SDS011;9469;51.114;13.914;2022-12-18T03:32:50;57.57;;;21.77;;
18677;SDS011;9469;51.114;13.914;2022-12-18T03:38:03;59.40;;;22.57;;
18677;SDS011;9469;51.114;13.914;2022-12-18T03:43:15;49.77;;;22.10;;
18677;SDS011;9469;51.114;13.914;2022-12-18T03:48:28;94.43;;;23.37;;
18677;SDS011;9469;51.114;13.914;2022-12-18T03:53:43;53.33;;;22.27;;
18677;SDS011;9469;51.114;13.914;2022-12-18T03:58:58;61.93;;;23.40;;
18677;SDS011;9469;51.114;13.914;2022-12-18T04:04:09;42.37;;;19.27;;
18677;SDS011;9469;51.114;13.914;2022-12-18T04:09:17;41.80;;;18.70;;
18677;SDS011;9469;51.114;13.914;2022-12-18T04:14:24;42.63;;;18.83;;
18677;SDS011;9469;51.114;13.914;2022-12-18T04:19:33;36.87;;;18.53;;
18677;SDS011;9469;51.114;13.914;2022-12-18T04:24:39;42.87;;;18.03;;
18677;SDS011;9469;51.114;13.914;2022-12-18T04:30:02;55.83;;;19.63;;
18677;SDS011;9469;51.114;13.914;2022-12-18T04:35:11;36.30;;;17.73;;
18677;SDS011;9469;51.114;13.914;2022-12-18T04:40:18;43.33;;;20.00;;
18677;SDS011;9469;51.114;13.914;2022-12-18T04:45:23;38.60;;;19.47;;
18677;SDS011;9469;51.114;13.914;2022-12-18T04:50:31;33.47;;;18.07;;
18677;SDS011;9469;51.114;13.914;2022-12-18T04:55:36;34.23;;;17.87;;
18677;SDS011;9469;51.114;13.914;2022-12-18T05:00:41;34.50;;;18.73;;
18677;SDS011;9469;51.114;13.914;2022-12-18T05:05:51;36.87;;;17.30;;
18677;SDS011;9469;51.114;13.914;2022-12-18T05:11:00;35.30;;;16.77;;
18677;SDS011;9469;51.114;13.914;2022-12-18T05:16:06;33.60;;;17.40;;
18677;SDS011;9469;51.114;13.914;2022-12-18T05:21:14;31.97;;;18.43;;
18677;SDS011;9469;51.114;13.914;2022-12-18T05:26:19;34.10;;;17.90;;
18677;SDS011;9469;51.114;13.914;2022-12-18T05:31:24;37.73;;;19.10;;
18677;SDS011;9469;51.114;13.914;2022-12-18T05:36:32;37.90;;;18.80;;
18677;SDS011;9469;51.114;13.914;2022-12-18T05:41:37;42.27;;;19.53;;
18677;SDS011;9469;51.114;13.914;2022-12-18T05:46:42;34.63;;;19.00;;
18677;SDS011;9469;51.114;13.914;2022-12-18T05:51:49;39.50;;;20.50;;
18677;SDS011;9469;51.114;13.914;2022-12-18T05:56:55;34.27;;;19.33;;
18677;SDS011;9469;51.114;13.914;2022-12-18T06:01:59;43.87;;;20.97;;
18677;SDS011;9469;51.114;13.914;2022-12-18T06:07:07;35.40;;;19.70;;
18677;SDS011;9469;51.114;13.914;2022-12-18T06:12:12;46.23;;;19.87;;
18677;SDS011;9469;51.114;13.914;2022-12-18T06:17:17;46.47;;;23.30;;
18677;SDS011;9469;51.114;13.914;2022-12-18T06:22:25;44.87;;;22.30;;
18677;SDS011;9469;51.114;13.914;2022-12-18T06:27:30;43.80;;;21.10;;
18677;SDS011;9469;51.114;13.914;2022-12-18T06:32:35;39.53;;;20.63;;
18677;SDS011;9469;51.114;13.914;2022-12-18T06:37:43;38.93;;;20.57;;
18677;SDS011;9469;51.114;13.914;2022-12-18T06:42:48;44.67;;;24.53;;
18677;SDS011;9469;51.114;13.914;2022-12-18T06:47:53;44.53;;;23.37;;
18677;SDS011;9469;51.114;13.914;2022-12-18T06:53:03;51.33;;;23.87;;
18677;SDS011;9469;51.114;13.914;2022-12-18T06:58:08;44.90;;;23.03;;
18677;SDS011;9469;51.114;13.914;2022-12-18T07:03:13;38.20;;;20.87;;
18677;SDS011;9469;51.114;13.914;2022-12-18T07:08:21;43.73;;;22.93;;
18677;SDS011;9469;51.114;13.914;2022-12-18T07:13:26;40.80;;;22.33;;
18677;SDS011;9469;51.114;13.914;2022-12-18T07:18:31;44.73;;;22.17;;
18677;SDS011;9469;51.114;13.914;2022-12-18T07:23:38;37.83;;;22.10;;
18677;SDS011;9469;51.114;13.914;2022-12-18T07:28:47;35.40;;;20.10;;
18677;SDS011;9469;51.114;13.914;2022-12-18T07:33:53;35.67;;;19.80;;
18677;SDS011;9469;51.114;13.914;2022-12-18T07:39:01;40.10;;;20.23;;
18677;SDS011;9469;51.114;13.914;2022-12-18T07:44:05;34.77;;;19.93;;
18677;SDS011;9469;51.114;13.914;2022-12-18T07:49:13;40.10;;;19.97;;
18677;SDS011;9469;51.114;13.914;2022-12-18T07:54:20;38.27;;;21.17;;
18677;SDS011;9469;51.114;13.914;2022-12-18T07:59:26;40.73;;;20.43;;
18677;SDS011;9469;51.114;13.914;2022-12-18T08:04:31;39.27;;;20.83;;
18677;SDS011;9469;51.114;13.914;2022-12-18T08:09:38;34.97;;;19.97;;
18677;SDS011;9469;51.114;13.914;2022-12-18T08:14:43;31.50;;;18.83;;
18677;SDS011;9469;51.114;13.914;2022-12-18T08:19:48;29.13;;;16.27;;
18677;SDS011;9469;51.114;13.914;2022-12-18T08:24:57;29.83;;;16.40;;
18677;SDS011;9469;51.114;13.914;2022-12-18T08:30:03;37.50;;;17.27;;
18677;SDS011;9469;51.114;13.914;2022-12-18T08:35:08;31.43;;;16.83;;
18677;SDS011;9469;51.114;13.914;2022-12-18T08:40:20;37.73;;;20.00;;
18677;SDS011;9469;51.114;13.914;2022-12-18T08:45:25;37.73;;;18.87;;
18677;SDS011;9469;51.114;13.914;2022-12-18T08:50:30;36.73;;;17.77;;
18677;SDS011;9469;51.114;13.914;2022-12-18T08:55:38;31.90;;;15.77;;
18677;SDS011;9469;51.114;13.914;2022-12-18T09:00:51;30.43;;;15.70;;
18677;SDS011;9469;51.114;13.914;2022-12-18T09:05:56;39.93;;;20.97;;
18677;SDS011;9469;51.114;13.914;2022-12-18T09:11:03;35.40;;;17.93;;
18677;SDS011;9469;51.114;13.914;2022-12-18T09:16:09;40.23;;;18.83;;
18677;SDS011;9469;51.114;13.914;2022-12-18T09:21:14;43.47;;;20.73;;
18677;SDS011;9469;51.114;13.914;2022-12-18T09:26:24;39.67;;;20.10;;
18677;SDS011;9469;51.114;13.914;2022-12-18T09:31:31;37.43;;;19.33;;
18677;SDS011;9469;51.114;13.914;2022-12-18T09:36:36;41.73;;;20.57;;
18677;SDS011;9469;51.114;13.914;2022-12-18T09:41:50;41.70;;;19.47;;
18677;SDS011;9469;51.114;13.914;2022-12-18T09:47:01;35.10;;;16.97;;
18677;SDS011;9469;51.114;13.914;2022-12-18T09:52:16;38.40;;;18.77;;
18677;SDS011;9469;51.114;13.914;2022-12-18T09:57:28;38.53;;;19.03;;
18677;SDS011;9469;51.114;13.914;2022-12-18T10:02:36;38.53;;;18.07;;
18677;SDS011;9469;51.114;13.914;2022-12-18T10:07:44;31.93;;;17.83;;
18677;SDS011;9469;51.114;13.914;2022-12-18T10:13:02;33.67;;;16.77;;
18677;SDS011;9469;51.114;13.914;2022-12-18T10:18:17;34.53;;;18.93;;
18677;SDS011;9469;51.114;13.914;2022-12-18T10:23:32;38.80;;;18.93;;
18677;SDS011;9469;51.114;13.914;2022-12-18T10:28:51;44.70;;;19.17;;
18677;SDS011;9469;51.114;13.914;2022-12-18T10:34:08;32.93;;;16.70;;
18677;SDS011;9469;51.114;13.914;2022-12-18T10:39:15;35.37;;;19.23;;
18677;SDS011;9469;51.114;13.914;2022-12-18T10:44:27;38.27;;;19.23;;
18677;SDS011;9469;51.114;13.914;2022-12-18T10:49:33;45.80;;;19.63;;
18677;SDS011;9469;51.114;13.914;2022-12-18T10:54:40;33.20;;;17.77;;
18677;SDS011;9469;51.114;13.914;2022-12-18T10:59:54;35.77;;;19.07;;
18677;SDS011;9469;51.114;13.914;2022-12-18T11:05:00;34.07;;;18.63;;
18677;SDS011;9469;51.114;13.914;2022-12-18T11:10:15;39.13;;;20.60;;
18677;SDS011;9469;51.114;13.914;2022-12-18T11:15:24;38.77;;;19.47;;
18677;SDS011;9469;51.114;13.914;2022-12-18T11:20:34;36.27;;;19.60;;
18677;SDS011;9469;51.114;13.914;2022-12-18T11:25:40;34.47;;;18.27;;
18677;SDS011;9469;51.114;13.914;2022-12-18T11:36:25;33.03;;;18.43;;
18677;SDS011;9469;51.114;13.914;2022-12-18T11:41:37;39.93;;;19.10;;
18677;SDS011;9469;51.114;13.914;2022-12-18T11:47:07;35.70;;;18.87;;
18677;SDS011;9469;51.114;13.914;2022-12-18T11:52:21;34.77;;;18.57;;
18677;SDS011;9469;51.114;13.914;2022-12-18T11:57:31;31.97;;;16.60;;
18677;SDS011;9469;51.114;13.914;2022-12-18T12:02:50;31.07;;;17.17;;
18677;SDS011;9469;51.114;13.914;2022-12-18T12:08:13;23.50;;;13.93;;
18677;SDS011;9469;51.114;13.914;2022-12-18T12:13:26;25.87;;;15.10;;
18677;SDS011;9469;51.114;13.914;2022-12-18T12:18:46;30.03;;;15.47;;
18677;SDS011;9469;51.114;13.914;2022-12-18T12:24:08;25.47;;;16.47;;
18677;SDS011;9469;51.114;13.914;2022-12-18T12:29:27;27.30;;;16.27;;
18677;SDS011;9469;51.114;13.914;2022-12-18T12:34:47;28.93;;;15.83;;
18677;SDS011;9469;51.114;13.914;2022-12-18T12:40:11;25.77;;;13.73;;
18677;SDS011;9469;51.114;13.914;2022-12-18T12:45:46;22.33;;;14.27;;
18677;SDS011;9469;51.114;13.914;2022-12-18T12:50:58;29.80;;;15.47;;
18677;SDS011;9469;51.114;13.914;2022-12-18T12:56:05;25.63;;;14.13;;
18677;SDS011;9469;51.114;13.914;2022-12-18T13:01:16;26.73;;;13.43;;
18677;SDS011;9469;51.114;13.914;2022-12-18T13:06:36;27.87;;;14.83;;
18677;SDS011;9469;51.114;13.914;2022-12-18T13:11:48;25.10;;;14.53;;
18677;SDS011;9469;51.114;13.914;2022-12-18T13:17:16;30.80;;;15.87;;
18677;SDS011;9469;51.114;13.914;2022-12-18T13:22:38;28.83;;;15.93;;
18677;SDS011;9469;51.114;13.914;2022-12-18T13:27:55;32.40;;;17.13;;
18677;SDS011;9469;51.114;13.914;2022-12-18T13:39:24;29.70;;;15.33;;
18677;SDS011;9469;51.114;13.914;2022-12-18T13:44:39;27.00;;;14.23;;
18677;SDS011;9469;51.114;13.914;2022-12-18T13:49:46;29.40;;;15.70;;
18677;SDS011;9469;51.114;13.914;2022-12-18T13:54:55;32.07;;;15.47;;
18677;SDS011;9469;51.114;13.914;2022-12-18T14:00:16;24.53;;;14.30;;
18677;SDS011;9469;51.114;13.914;2022-12-18T14:05:31;27.70;;;13.90;;
18677;SDS011;9469;51.114;13.914;2022-12-18T14:10:47;27.23;;;13.97;;
18677;SDS011;9469;51.114;13.914;2022-12-18T14:15:56;21.17;;;12.90;;
18677;SDS011;9469;51.114;13.914;2022-12-18T14:21:05;23.47;;;14.53;;
18677;SDS011;9469;51.114;13.914;2022-12-18T14:26:23;28.20;;;13.60;;
18677;SDS011;9469;51.114;13.914;2022-12-18T14:31:32;27.00;;;14.30;;
18677;SDS011;9469;51.114;13.914;2022-12-18T14:36:37;28.07;;;14.37;;
18677;SDS011;9469;51.114;13.914;2022-12-18T14:41:45;23.73;;;14.77;;
18677;SDS011;9469;51.114;13.914;2022-12-18T14:46:52;29.27;;;15.80;;
18677;SDS011;9469;51.114;13.914;2022-12-18T14:52:00;32.93;;;16.33;;
18677;SDS011;9469;51.114;13.914;2022-12-18T14:57:17;27.17;;;13.13;;
18677;SDS011;9469;51.114;13.914;2022-12-18T15:02:27;33.87;;;15.93;;
18677;SDS011;9469;51.114;13.914;2022-12-18T15:07:39;30.47;;;15.30;;
18677;SDS011;9469;51.114;13.914;2022-12-18T15:13:05;28.60;;;16.13;;
18677;SDS011;9469;51.114;13.914;2022-12-18T15:18:13;31.00;;;15.30;;
18677;SDS011;9469;51.114;13.914;2022-12-18T15:23:22;30.50;;;15.47;;
18677;SDS011;9469;51.114;13.914;2022-12-18T15:28:33;32.97;;;15.97;;
18677;SDS011;9469;51.114;13.914;2022-12-18T15:33:41;39.67;;;17.10;;
18677;SDS011;9469;51.114;13.914;2022-12-18T15:38:48;33.23;;;16.60;;
18677;SDS011;9469;51.114;13.914;2022-12-18T15:43:56;30.90;;;14.83;;
18677;SDS011;9469;51.114;13.914;2022-12-18T15:49:02;26.27;;;14.37;;
18677;SDS011;9469;51.114;13.914;2022-12-18T15:54:09;36.50;;;17.83;;
18677;SDS011;9469;51.114;13.914;2022-12-18T15:59:20;30.73;;;15.20;;
18677;SDS011;9469;51.114;13.914;2022-12-18T16:04:25;34.37;;;18.23;;
18677;SDS011;9469;51.114;13.914;2022-12-18T16:09:30;32.20;;;16.70;;
18677;SDS011;9469;51.114;13.914;2022-12-18T16:14:38;29.63;;;16.50;;
18677;SDS011;9469;51.114;13.914;2022-12-18T16:19:44;31.90;;;17.83;;
18677;SDS011;9469;51.114;13.914;2022-12-18T16:24:49;32.97;;;17.57;;
18677;SDS011;9469;51.114;13.914;2022-12-18T16:29:58;39.20;;;18.73;;
18677;SDS011;9469;51.114;13.914;2022-12-18T16:35:04;34.27;;;18.03;;
18677;SDS011;9469;51.114;13.914;2022-12-18T16:40:11;35.23;;;17.23;;
18677;SDS011;9469;51.114;13.914;2022-12-18T16:45:20;36.17;;;17.87;;
18677;SDS011;9469;51.114;13.914;2022-12-18T16:50:28;30.07;;;18.10;;
18677;SDS011;9469;51.114;13.914;2022-12-18T16:55:36;36.20;;;18.30;;
18677;SDS011;9469;51.114;13.914;2022-12-18T17:00:43;35.37;;;18.63;;
18677;SDS011;9469;51.114;13.914;2022-12-18T17:05:49;39.30;;;20.43;;
18677;SDS011;9469;51.114;13.914;2022-12-18T17:10:55;38.63;;;19.50;;
18677;SDS011;9469;51.114;13.914;2022-12-18T17:16:04;31.97;;;18.90;;
18677;SDS011;9469;51.114;13.914;2022-12-18T17:21:11;34.90;;;19.03;;
18677;SDS011;9469;51.114;13.914;2022-12-18T17:26:19;30.10;;;17.13;;
18677;SDS011;9469;51.114;13.914;2022-12-18T17:31:28;44.13;;;19.47;;
18677;SDS011;9469;51.114;13.914;2022-12-18T17:36:34;35.40;;;18.77;;
18677;SDS011;9469;51.114;13.914;2022-12-18T17:41:40;38.70;;;21.07;;
18677;SDS011;9469;51.114;13.914;2022-12-18T17:46:50;41.50;;;20.83;;
18677;SDS011;9469;51.114;13.914;2022-12-18T17:51:56;38.53;;;20.50;;
18677;SDS011;9469;51.114;13.914;2022-12-18T17:57:02;40.10;;;20.37;;
18677;SDS011;9469;51.114;13.914;2022-12-18T18:02:11;35.90;;;18.27;;
18677;SDS011;9469;51.114;13.914;2022-12-18T18:07:20;38.50;;;19.80;;
18677;SDS011;9469;51.114;13.914;2022-12-18T18:12:27;36.90;;;20.37;;
18677;SDS011;9469;51.114;13.914;2022-12-18T18:17:49;43.63;;;18.47;;
18677;SDS011;9469;51.114;13.914;2022-12-18T18:22:54;36.40;;;18.07;;
18677;SDS011;9469;51.114;13.914;2022-12-18T18:27:59;37.57;;;18.13;;
18677;SDS011;9469;51.114;13.914;2022-12-18T18:33:08;35.63;;;18.77;;
18677;SDS011;9469;51.114;13.914;2022-12-18T18:38:13;34.27;;;16.50;;
18677;SDS011;9469;51.114;13.914;2022-12-18T18:43:21;36.37;;;18.33;;
18677;SDS011;9469;51.114;13.914;2022-12-18T18:48:29;40.43;;;16.37;;
18677;SDS011;9469;51.114;13.914;2022-12-18T18:53:38;37.77;;;18.17;;
18677;SDS011;9469;51.114;13.914;2022-12-18T18:58:45;45.33;;;20.00;;
18677;SDS011;9469;51.114;13.914;2022-12-18T19:03:56;41.23;;;17.47;;
18677;SDS011;9469;51.114;13.914;2022-12-18T19:09:02;36.77;;;18.80;;
18677;SDS011;9469;51.114;13.914;2022-12-18T19:14:08;33.10;;;19.87;;
18677;SDS011;9469;51.114;13.914;2022-12-18T19:19:18;34.77;;;19.17;;
18677;SDS011;9469;51.114;13.914;2022-12-18T19:24:24;43.07;;;22.30;;
18677;SDS011;9469;51.114;13.914;2022-12-18T19:29:29;38.77;;;19.10;;
18677;SDS011;9469;51.114;13.914;2022-12-18T19:34:38;37.87;;;18.87;;
18677;SDS011;9469;51.114;13.914;2022-12-18T19:39:49;42.13;;;20.93;;
18677;SDS011;9469;51.114;13.914;2022-12-18T19:44:57;41.40;;;20.17;;
18677;SDS011;9469;51.114;13.914;2022-12-18T19:50:08;44.77;;;20.77;;
18677;SDS011;9469;51.114;13.914;2022-12-18T19:55:22;36.93;;;19.60;;
18677;SDS011;9469;51.114;13.914;2022-12-18T20:00:29;32.70;;;21.13;;
18677;SDS011;9469;51.114;13.914;2022-12-18T20:05:39;34.60;;;17.87;;
18677;SDS011;9469;51.114;13.914;2022-12-18T20:10:45;35.40;;;20.27;;
18677;SDS011;9469;51.114;13.914;2022-12-18T20:15:52;34.53;;;18.80;;
18677;SDS011;9469;51.114;13.914;2022-12-18T20:21:00;37.20;;;21.47;;
18677;SDS011;9469;51.114;13.914;2022-12-18T20:26:12;41.83;;;18.10;;
18677;SDS011;9469;51.114;13.914;2022-12-18T20:31:21;32.47;;;15.97;;
18677;SDS011;9469;51.114;13.914;2022-12-18T20:36:33;38.33;;;20.63;;
18677;SDS011;9469;51.114;13.914;2022-12-18T20:41:40;34.77;;;18.03;;
18677;SDS011;9469;51.114;13.914;2022-12-18T20:46:46;35.70;;;17.03;;
18677;SDS011;9469;51.114;13.914;2022-12-18T20:51:55;33.07;;;17.43;;
18677;SDS011;9469;51.114;13.914;2022-12-18T20:57:03;33.63;;;15.70;;
18677;SDS011;9469;51.114;13.914;2022-12-18T21:02:10;37.77;;;17.40;;
18677;SDS011;9469;51.114;13.914;2022-12-18T21:07:22;29.90;;;17.73;;
18677;SDS011;9469;51.114;13.914;2022-12-18T21:12:29;31.83;;;17.93;;
18677;SDS011;9469;51.114;13.914;2022-12-18T21:18:05;37.00;;;21.00;;
18677;SDS011;9469;51.114;13.914;2022-12-18T21:23:12;33.90;;;19.47;;
18677;SDS011;9469;51.114;13.914;2022-12-18T21:28:18;36.07;;;18.63;;
18677;SDS011;9469;51.114;13.914;2022-12-18T21:33:23;37.57;;;18.43;;
18677;SDS011;9469;51.114;13.914;2022-12-18T21:38:32;40.47;;;21.07;;
18677;SDS011;9469;51.114;13.914;2022-12-18T21:43:37;37.40;;;17.17;;
18677;SDS011;9469;51.114;13.914;2022-12-18T21:48:54;40.37;;;18.73;;
18677;SDS011;9469;51.114;13.914;2022-12-18T21:54:02;38.63;;;18.43;;
18677;SDS011;9469;51.114;13.914;2022-12-18T21:59:07;35.03;;;19.40;;
18677;SDS011;9469;51.114;13.914;2022-12-18T22:04:13;40.43;;;21.13;;
18677;SDS011;9469;51.114;13.914;2022-12-18T22:09:22;41.20;;;20.63;;
18677;SDS011;9469;51.114;13.914;2022-12-18T22:14:28;45.20;;;23.20;;
18677;SDS011;9469;51.114;13.914;2022-12-18T22:19:33;37.57;;;20.97;;
18677;SDS011;9469;51.114;13.914;2022-12-18T22:24:46;37.63;;;17.20;;
18677;SDS011;9469;51.114;13.914;2022-12-18T22:29:51;34.90;;;18.50;;
18677;SDS011;9469;51.114;13.914;2022-12-18T22:35:08;29.60;;;17.53;;
18677;SDS011;9469;51.114;13.914;2022-12-18T22:40:20;36.67;;;18.37;;
18677;SDS011;9469;51.114;13.914;2022-12-18T22:45:27;36.67;;;16.47;;
18677;SDS011;9469;51.114;13.914;2022-12-18T22:50:34;33.10;;;17.83;;
18677;SDS011;9469;51.114;13.914;2022-12-18T22:55:42;37.77;;;20.87;;
18677;SDS011;9469;51.114;13.914;2022-12-18T23:00:47;32.80;;;19.47;;
18677;SDS011;9469;51.114;13.914;2022-12-18T23:05:52;34.77;;;18.33;;
18677;SDS011;9469;51.114;13.914;2022-12-18T23:10:59;33.43;;;18.93;;
18677;SDS011;9469;51.114;13.914;2022-12-18T23:16:05;31.80;;;17.03;;
18677;SDS011;9469;51.114;13.914;2022-12-18T23:21:12;41.87;;;20.80;;
18677;SDS011;9469;51.114;13.914;2022-12-18T23:26:22;39.17;;;20.50;;
18677;SDS011;9469;51.114;13.914;2022-12-18T23:31:29;37.03;;;19.60;;
18677;SDS011;9469;51.114;13.914;2022-12-18T23:36:35;38.53;;;19.80;;
18677;SDS011;9469;51.114;13.914;2022-12-18T23:41:50;41.27;;;20.33;;
18677;SDS011;9469;51.114;13.914;2022-12-18T23:46:55;39.30;;;20.93;;
18677;SDS011;9469;51.114;13.914;2022-12-18T23:52:00;40.63;;;21.87;;
18677;SDS011;9469;51.114;13.914;2022-12-18T23:57:07;39.00;;;21.33;;
